Terminal Aerodrome Forecast
Issued by NWS

Home | Current Version | Previous Version | Text Only | Print | Product List | Glossary Off
Versions: 1 2 3 4 5 6 7 8 9 10 11 12 13 14 15 16

000
FTUS43 KBIS 032339
TAFDIK
TAF
KDIK 032339Z 0400/0424 31012G17KT P6SM SCT080 SCT250
     FM040100 02005KT P6SM BKN250
     FM040300 VRB03KT P6SM BKN250
     FM041400 15011KT P6SM BKN080
     FM041700 16015G21KT P6SM BKN070=

USA.gov is the U.S. government's official web portal to all federal, state and local government web resources and services.